• Join FlightAware (Why Join?)
  • Login
  • US Flag 
11:31AM EDT


 

Airport Tracker/Info


-or-


 

Live Flight TrackerFlight Track Log ✈ AMF1324 ✈ 12-Nov-2013 ✈ KBUF - KBUF

Flight Track Log - Related Links

Times and Time Zones

All times are in EST time to prevent confusion due to time zone crossing. See the AMF1324 flight status page for this flight to view local times or setup timezone preferences in your user account.

Time Position Orientation Groundspeed Altitude Reporting Facility
EST Latitude Longitude Course Direction KTS MPH feet Rate Location/Type
09:56AM 42.9667 -78.7000 36° Northeast 155 178 2,500  Level Buffalo TRACON
09:57AM 42.9667 -78.6500 90° East 179 206 4,500 1,920 Climbing Buffalo TRACON
09:58AM 42.9503 -78.6086 118° Southeast 183 211 5,600 1,800 Climbing Cleveland Center
09:59AM 42.9272 -78.5378 114° Southeast 196 226 7,500 1,860 Climbing Cleveland Center
10:00AM 42.9019 -78.4636 115° Southeast 208 239 9,500 1,620 Climbing Cleveland Center
10:01AM 42.8825 -78.3939 111° Southeast 215 247 10,900 720 Climbing Cleveland Center
10:02AM 42.8583 -78.3053 110° East 253 291 11,100  Climbing Cleveland Center
10:03AM 42.8347 -78.2078 108° East 272 313 11,000 -60 Descending Cleveland Center
10:04AM 42.8286 -78.0867 94° East 267 307 11,000  Level Cleveland Center
10:05AM 42.8322 -77.9853 87° East 268 308 11,000  Level Cleveland Center
10:06AM 42.8353 -77.8825 88° East 269 310 11,100  Climbing Cleveland Center
10:07AM 42.8456 -77.7856 82° East 270 311 11,100 -60 Level Cleveland Center
10:08AM 42.8936 -77.8228 330° Northwest 253 291 11,000  Descending Cleveland Center
10:09AM 42.8811 -77.9147 260° West 249 287 11,100 -60 Climbing Cleveland Center
10:10AM 42.8708 -77.9831 258° West 232 267 10,900 -120 Descending Cleveland Center
10:10AM 42.8689 -77.9992 261° West 225 259 11,000 -480 Climbing Cleveland Center
10:11AM 42.8653 -78.0964 267° West 218 251 10,300 -900 Descending Cleveland Center
10:12AM 42.8692 -78.1828 274° West 228 262 9,200 -1,260 Descending Cleveland Center
10:13AM 42.8592 -78.2667 261° West 215 247 7,700 -1,740 Descending Cleveland Center
10:14AM 42.8508 -78.3536 263° West 221 254 5,700 -1,500 Descending Cleveland Center
10:15AM 42.8528 -78.4297 272° West 210 242 4,600 -1,080 Descending Cleveland Center
10:16AM 42.8600 -78.5142 277° West 201 231 3,500 -1,020 Descending Cleveland Center
10:17AM 42.8639 -78.5817 275° West 188 216 2,600 -600 Descending Cleveland Center
10:18AM 42.9000 -78.6333 314° West 145 167 2,300 -540 Descending Buffalo TRACON
10:19AM 42.9167 -78.6833 294° West 116 133 1,500 -720 Descending Buffalo TRACON
10:20AM 42.9333 -78.7167 304° West 116 133 800 -720 Descending Buffalo TRACON
10:22AM 42.9404 -78.7306 90° East  Level Estimated
10:29AM 42.9404 -78.7306 276° West  Level Estimated